sensor_id;sensor_type;location;lat;lon;timestamp;temperature;humidity
52275;DHT22;38228;50.940;4.024;2023-04-01T00:00:46;10.30;99.90
52275;DHT22;38228;50.940;4.024;2023-04-01T00:03:12;10.30;99.90
52275;DHT22;38228;50.940;4.024;2023-04-01T00:05:38;10.30;99.90
52275;DHT22;38228;50.940;4.024;2023-04-01T00:08:03;10.20;99.90
52275;DHT22;38228;50.940;4.024;2023-04-01T00:10:30;10.20;99.90
52275;DHT22;38228;50.940;4.024;2023-04-01T00:12:55;10.20;99.90
52275;DHT22;38228;50.940;4.024;2023-04-01T00:15:21;10.20;99.90
52275;DHT22;38228;50.940;4.024;2023-04-01T00:17:46;10.20;99.90
52275;DHT22;38228;50.940;4.024;2023-04-01T00:20:12;10.20;99.90
52275;DHT22;38228;50.940;4.024;2023-04-01T00:22:39;10.10;99.90
52275;DHT22;38228;50.940;4.024;2023-04-01T00:25:05;10.20;99.90
52275;DHT22;38228;50.940;4.024;2023-04-01T00:27:31;10.30;99.90
52275;DHT22;38228;50.940;4.024;2023-04-01T00:29:56;10.30;99.90
52275;DHT22;38228;50.940;4.024;2023-04-01T00:32:22;10.40;99.90
52275;DHT22;38228;50.940;4.024;2023-04-01T00:34:50;10.20;99.90
52275;DHT22;38228;50.940;4.024;2023-04-01T00:37:15;10.20;99.90
52275;DHT22;38228;50.940;4.024;2023-04-01T00:39:41;10.20;99.90
52275;DHT22;38228;50.940;4.024;2023-04-01T00:42:06;10.30;99.90
52275;DHT22;38228;50.940;4.024;2023-04-01T00:44:33;10.20;99.90
52275;DHT22;38228;50.940;4.024;2023-04-01T00:47:00;10.30;99.90
52275;DHT22;38228;50.940;4.024;2023-04-01T00:49:27;10.30;99.90
52275;DHT22;38228;50.940;4.024;2023-04-01T00:51:54;10.30;99.90
52275;DHT22;38228;50.940;4.024;2023-04-01T00:54:21;10.30;99.90
52275;DHT22;38228;50.940;4.024;2023-04-01T00:56:58;10.30;99.90
52275;DHT22;38228;50.940;4.024;2023-04-01T00:59:29;10.40;99.90
52275;DHT22;38228;50.940;4.024;2023-04-01T01:01:55;10.30;99.90
52275;DHT22;38228;50.940;4.024;2023-04-01T01:06:50;10.20;99.90
52275;DHT22;38228;50.940;4.024;2023-04-01T01:09:25;10.20;99.90
52275;DHT22;38228;50.940;4.024;2023-04-01T01:12:11;10.20;99.90
52275;DHT22;38228;50.940;4.024;2023-04-01T01:17:28;10.20;99.90
52275;DHT22;38228;50.940;4.024;2023-04-01T01:30:43;9.90;99.90
52275;DHT22;38228;50.940;4.024;2023-04-01T01:33:30;9.90;99.90
52275;DHT22;38228;50.940;4.024;2023-04-01T01:35:58;9.80;99.90
52275;DHT22;38228;50.940;4.024;2023-04-01T01:38:26;9.70;99.90
52275;DHT22;38228;50.940;4.024;2023-04-01T01:40:52;9.70;99.90
52275;DHT22;38228;50.940;4.024;2023-04-01T01:43:21;9.70;99.90
52275;DHT22;38228;50.940;4.024;2023-04-01T01:45:48;9.60;99.90
52275;DHT22;38228;50.940;4.024;2023-04-01T01:48:14;9.50;99.90
52275;DHT22;38228;50.940;4.024;2023-04-01T01:50:40;9.40;99.90
52275;DHT22;38228;50.940;4.024;2023-04-01T01:53:08;9.40;99.90
52275;DHT22;38228;50.940;4.024;2023-04-01T01:55:37;9.40;99.90
52275;DHT22;38228;50.940;4.024;2023-04-01T01:58:09;9.50;99.90
52275;DHT22;38228;50.940;4.024;2023-04-01T02:00:37;9.60;99.90
52275;DHT22;38228;50.940;4.024;2023-04-01T02:03:03;9.50;99.90
52275;DHT22;38228;50.940;4.024;2023-04-01T02:05:29;9.50;99.90
52275;DHT22;38228;50.940;4.024;2023-04-01T02:08:05;9.50;99.90
52275;DHT22;38228;50.940;4.024;2023-04-01T02:10:32;9.60;99.90
52275;DHT22;38228;50.940;4.024;2023-04-01T02:13:00;9.50;99.90
52275;DHT22;38228;50.940;4.024;2023-04-01T02:15:27;9.60;99.90
52275;DHT22;38228;50.940;4.024;2023-04-01T02:17:55;9.60;99.90
52275;DHT22;38228;50.940;4.024;2023-04-01T02:20:22;9.60;99.90
52275;DHT22;38228;50.940;4.024;2023-04-01T02:22:52;9.60;99.90
52275;DHT22;38228;50.940;4.024;2023-04-01T02:25:23;9.50;99.90
52275;DHT22;38228;50.940;4.024;2023-04-01T02:27:50;9.50;99.90
52275;DHT22;38228;50.940;4.024;2023-04-01T02:30:16;9.50;99.90
52275;DHT22;38228;50.940;4.024;2023-04-01T02:32:42;9.60;99.90
52275;DHT22;38228;50.940;4.024;2023-04-01T02:35:12;9.60;99.90
52275;DHT22;38228;50.940;4.024;2023-04-01T02:37:38;9.50;99.90
52275;DHT22;38228;50.940;4.024;2023-04-01T02:40:07;9.50;99.90
52275;DHT22;38228;50.940;4.024;2023-04-01T02:42:34;9.50;99.90
52275;DHT22;38228;50.940;4.024;2023-04-01T02:44:59;9.50;99.90
52275;DHT22;38228;50.940;4.024;2023-04-01T02:47:25;9.50;99.90
52275;DHT22;38228;50.940;4.024;2023-04-01T02:49:51;9.50;99.90
52275;DHT22;38228;50.940;4.024;2023-04-01T02:52:23;9.60;99.90
52275;DHT22;38228;50.940;4.024;2023-04-01T02:54:49;9.60;99.90
52275;DHT22;38228;50.940;4.024;2023-04-01T02:57:15;9.60;99.90
52275;DHT22;38228;50.940;4.024;2023-04-01T02:59:40;9.60;99.90
52275;DHT22;38228;50.940;4.024;2023-04-01T03:02:06;9.60;99.90
52275;DHT22;38228;50.940;4.024;2023-04-01T03:04:32;9.60;99.90
52275;DHT22;38228;50.940;4.024;2023-04-01T03:06:57;9.60;99.90
52275;DHT22;38228;50.940;4.024;2023-04-01T03:09:23;9.60;99.90
52275;DHT22;38228;50.940;4.024;2023-04-01T03:11:49;9.60;99.90
52275;DHT22;38228;50.940;4.024;2023-04-01T03:14:14;9.70;99.90
52275;DHT22;38228;50.940;4.024;2023-04-01T03:16:40;9.70;99.90
52275;DHT22;38228;50.940;4.024;2023-04-01T03:19:05;9.70;99.90
52275;DHT22;38228;50.940;4.024;2023-04-01T03:21:31;9.70;99.90
52275;DHT22;38228;50.940;4.024;2023-04-01T03:23:56;9.70;99.90
52275;DHT22;38228;50.940;4.024;2023-04-01T03:26:22;9.70;99.90
52275;DHT22;38228;50.940;4.024;2023-04-01T03:28:48;9.70;99.90
52275;DHT22;38228;50.940;4.024;2023-04-01T03:31:13;9.70;99.90
52275;DHT22;38228;50.940;4.024;2023-04-01T03:33:39;9.60;99.90
52275;DHT22;38228;50.940;4.024;2023-04-01T03:36:05;9.70;99.90
52275;DHT22;38228;50.940;4.024;2023-04-01T03:38:34;9.60;99.90
52275;DHT22;38228;50.940;4.024;2023-04-01T03:41:00;9.60;99.90
52275;DHT22;38228;50.940;4.024;2023-04-01T03:43:26;9.70;99.90
52275;DHT22;38228;50.940;4.024;2023-04-01T03:45:51;9.60;99.90
52275;DHT22;38228;50.940;4.024;2023-04-01T03:48:18;9.60;99.90
52275;DHT22;38228;50.940;4.024;2023-04-01T03:50:43;9.60;99.90
52275;DHT22;38228;50.940;4.024;2023-04-01T03:53:09;9.60;99.90
52275;DHT22;38228;50.940;4.024;2023-04-01T03:55:35;9.50;99.90
52275;DHT22;38228;50.940;4.024;2023-04-01T03:58:01;9.50;99.90
52275;DHT22;38228;50.940;4.024;2023-04-01T04:00:28;9.50;99.90
52275;DHT22;38228;50.940;4.024;2023-04-01T04:02:53;9.50;99.90
52275;DHT22;38228;50.940;4.024;2023-04-01T04:05:21;9.50;99.90
52275;DHT22;38228;50.940;4.024;2023-04-01T04:07:46;9.50;99.90
52275;DHT22;38228;50.940;4.024;2023-04-01T04:10:12;9.30;99.90
52275;DHT22;38228;50.940;4.024;2023-04-01T04:12:37;9.30;99.90
52275;DHT22;38228;50.940;4.024;2023-04-01T04:15:03;9.30;99.90
52275;DHT22;38228;50.940;4.024;2023-04-01T04:17:29;9.30;99.90
52275;DHT22;38228;50.940;4.024;2023-04-01T04:19:54;9.30;99.90
52275;DHT22;38228;50.940;4.024;2023-04-01T04:22:20;9.30;99.90
52275;DHT22;38228;50.940;4.024;2023-04-01T04:24:45;9.30;99.90
52275;DHT22;38228;50.940;4.024;2023-04-01T04:27:11;9.30;99.90
52275;DHT22;38228;50.940;4.024;2023-04-01T04:29:36;9.30;99.90
52275;DHT22;38228;50.940;4.024;2023-04-01T04:32:02;9.30;99.90
52275;DHT22;38228;50.940;4.024;2023-04-01T04:34:28;9.40;99.90
52275;DHT22;38228;50.940;4.024;2023-04-01T04:36:53;9.30;99.90
52275;DHT22;38228;50.940;4.024;2023-04-01T04:39:19;9.30;99.90
52275;DHT22;38228;50.940;4.024;2023-04-01T04:41:44;9.30;99.90
52275;DHT22;38228;50.940;4.024;2023-04-01T04:44:10;9.30;99.90
52275;DHT22;38228;50.940;4.024;2023-04-01T04:46:36;9.40;99.90
52275;DHT22;38228;50.940;4.024;2023-04-01T04:49:03;9.40;99.90
52275;DHT22;38228;50.940;4.024;2023-04-01T04:51:28;9.40;99.90
52275;DHT22;38228;50.940;4.024;2023-04-01T04:53:54;9.40;99.90
52275;DHT22;38228;50.940;4.024;2023-04-01T04:56:20;9.40;99.90
52275;DHT22;38228;50.940;4.024;2023-04-01T04:58:46;9.40;99.90
52275;DHT22;38228;50.940;4.024;2023-04-01T05:01:13;9.40;99.90
52275;DHT22;38228;50.940;4.024;2023-04-01T05:03:39;9.60;99.90
52275;DHT22;38228;50.940;4.024;2023-04-01T05:06:05;9.50;99.90
52275;DHT22;38228;50.940;4.024;2023-04-01T05:08:31;9.40;99.90
52275;DHT22;38228;50.940;4.024;2023-04-01T05:10:58;9.30;99.90
52275;DHT22;38228;50.940;4.024;2023-04-01T05:13:24;9.30;99.90
52275;DHT22;38228;50.940;4.024;2023-04-01T05:15:49;9.20;99.90
52275;DHT22;38228;50.940;4.024;2023-04-01T05:18:15;9.20;99.90
52275;DHT22;38228;50.940;4.024;2023-04-01T05:20:48;9.10;99.90
52275;DHT22;38228;50.940;4.024;2023-04-01T05:23:14;9.20;99.90
52275;DHT22;38228;50.940;4.024;2023-04-01T05:25:39;9.20;99.90
52275;DHT22;38228;50.940;4.024;2023-04-01T05:28:05;9.20;99.90
52275;DHT22;38228;50.940;4.024;2023-04-01T05:30:31;9.20;99.90
52275;DHT22;38228;50.940;4.024;2023-04-01T05:32:56;9.20;99.90
52275;DHT22;38228;50.940;4.024;2023-04-01T05:35:22;9.20;99.90
52275;DHT22;38228;50.940;4.024;2023-04-01T05:37:48;9.20;99.90
52275;DHT22;38228;50.940;4.024;2023-04-01T05:40:14;9.20;99.90
52275;DHT22;38228;50.940;4.024;2023-04-01T05:42:39;9.20;99.90
52275;DHT22;38228;50.940;4.024;2023-04-01T05:45:05;9.30;99.90
52275;DHT22;38228;50.940;4.024;2023-04-01T05:47:31;9.30;99.90
52275;DHT22;38228;50.940;4.024;2023-04-01T05:49:57;9.20;99.90
52275;DHT22;38228;50.940;4.024;2023-04-01T05:52:23;9.20;99.90
52275;DHT22;38228;50.940;4.024;2023-04-01T05:54:49;9.30;99.90
52275;DHT22;38228;50.940;4.024;2023-04-01T05:57:15;9.20;99.90
52275;DHT22;38228;50.940;4.024;2023-04-01T05:59:40;9.20;99.90
52275;DHT22;38228;50.940;4.024;2023-04-01T06:02:06;9.20;99.90
52275;DHT22;38228;50.940;4.024;2023-04-01T06:04:37;9.20;99.90
52275;DHT22;38228;50.940;4.024;2023-04-01T06:07:16;9.30;99.90
52275;DHT22;38228;50.940;4.024;2023-04-01T06:09:43;9.30;99.90
52275;DHT22;38228;50.940;4.024;2023-04-01T06:17:30;9.30;99.90
52275;DHT22;38228;50.940;4.024;2023-04-01T06:20:13;9.30;99.90
52275;DHT22;38228;50.940;4.024;2023-04-01T06:25:28;9.30;99.90
52275;DHT22;38228;50.940;4.024;2023-04-01T06:33:00;9.30;99.90
52275;DHT22;38228;50.940;4.024;2023-04-01T06:35:35;9.30;99.90
52275;DHT22;38228;50.940;4.024;2023-04-01T06:43:21;9.40;99.90
52275;DHT22;38228;50.940;4.024;2023-04-01T06:51:09;9.30;99.90
52275;DHT22;38228;50.940;4.024;2023-04-01T06:54:40;9.30;99.90
52275;DHT22;38228;50.940;4.024;2023-04-01T06:56:33;9.20;99.90
52275;DHT22;38228;50.940;4.024;2023-04-01T07:01:47;9.10;99.90
52275;DHT22;38228;50.940;4.024;2023-04-01T07:04:13;9.10;99.90
52275;DHT22;38228;50.940;4.024;2023-04-01T07:06:42;9.20;99.90
52275;DHT22;38228;50.940;4.024;2023-04-01T07:09:10;9.20;99.90
52275;DHT22;38228;50.940;4.024;2023-04-01T07:11:37;9.10;99.90
52275;DHT22;38228;50.940;4.024;2023-04-01T07:19:14;9.00;99.90
52275;DHT22;38228;50.940;4.024;2023-04-01T07:21:44;9.00;99.90
52275;DHT22;38228;50.940;4.024;2023-04-01T07:24:13;9.10;99.90
52275;DHT22;38228;50.940;4.024;2023-04-01T07:26:42;9.10;99.90
52275;DHT22;38228;50.940;4.024;2023-04-01T07:29:12;9.20;99.90
52275;DHT22;38228;50.940;4.024;2023-04-01T07:37:12;9.10;99.90
52275;DHT22;38228;50.940;4.024;2023-04-01T07:50:21;9.30;99.90
52275;DHT22;38228;50.940;4.024;2023-04-01T07:53:00;9.30;99.90
52275;DHT22;38228;50.940;4.024;2023-04-01T07:55:42;9.30;99.90
52275;DHT22;38228;50.940;4.024;2023-04-01T07:58:15;9.40;99.90
52275;DHT22;38228;50.940;4.024;2023-04-01T08:00:46;9.40;99.90
52275;DHT22;38228;50.940;4.024;2023-04-01T08:06:20;9.40;99.90
52275;DHT22;38228;50.940;4.024;2023-04-01T08:14:05;9.50;99.90
52275;DHT22;38228;50.940;4.024;2023-04-01T08:16:35;9.60;99.90
52275;DHT22;38228;50.940;4.024;2023-04-01T08:21:49;9.50;99.90
52275;DHT22;38228;50.940;4.024;2023-04-01T08:26:45;9.50;99.90
52275;DHT22;38228;50.940;4.024;2023-04-01T08:29:23;9.40;99.90
52275;DHT22;38228;50.940;4.024;2023-04-01T08:32:05;9.40;99.90
52275;DHT22;38228;50.940;4.024;2023-04-01T08:34:39;9.50;99.90
52275;DHT22;38228;50.940;4.024;2023-04-01T08:37:15;9.50;99.90
52275;DHT22;38228;50.940;4.024;2023-04-01T08:45:15;9.50;99.90
52275;DHT22;38228;50.940;4.024;2023-04-01T08:47:53;9.50;99.90
52275;DHT22;38228;50.940;4.024;2023-04-01T08:55:38;9.60;99.90
52275;DHT22;38228;50.940;4.024;2023-04-01T08:58:16;9.70;99.90
52275;DHT22;38228;50.940;4.024;2023-04-01T09:14:06;9.60;99.90
52275;DHT22;38228;50.940;4.024;2023-04-01T09:19:21;9.50;99.90
52275;DHT22;38228;50.940;4.024;2023-04-01T09:24:39;9.50;99.90
52275;DHT22;38228;50.940;4.024;2023-04-01T09:34:54;9.50;99.90
52275;DHT22;38228;50.940;4.024;2023-04-01T09:37:35;9.50;99.90
52275;DHT22;38228;50.940;4.024;2023-04-01T09:40:08;9.60;99.90
52275;DHT22;38228;50.940;4.024;2023-04-01T09:42:45;9.60;99.90
52275;DHT22;38228;50.940;4.024;2023-04-01T09:45:21;9.60;99.90
52275;DHT22;38228;50.940;4.024;2023-04-01T09:47:52;9.50;99.90
52275;DHT22;38228;50.940;4.024;2023-04-01T09:50:31;9.70;99.90
52275;DHT22;38228;50.940;4.024;2023-04-01T09:53:08;9.70;99.90
52275;DHT22;38228;50.940;4.024;2023-04-01T10:11:11;9.90;99.90
52275;DHT22;38228;50.940;4.024;2023-04-01T10:16:19;9.90;99.90
52275;DHT22;38228;50.940;4.024;2023-04-01T10:24:42;10.10;99.90
52275;DHT22;38228;50.940;4.024;2023-04-01T10:32:38;10.10;99.90
52275;DHT22;38228;50.940;4.024;2023-04-01T10:56:21;10.00;99.90
52275;DHT22;38228;50.940;4.024;2023-04-01T10:59:07;10.10;99.90
52275;DHT22;38228;50.940;4.024;2023-04-01T11:20:07;10.10;99.90
52275;DHT22;38228;50.940;4.024;2023-04-01T11:30:24;10.10;99.90
52275;DHT22;38228;50.940;4.024;2023-04-01T11:32:57;10.10;99.90
52275;DHT22;38228;50.940;4.024;2023-04-01T11:35:28;10.00;99.90
52275;DHT22;38228;50.940;4.024;2023-04-01T11:40:35;10.10;99.90
52275;DHT22;38228;50.940;4.024;2023-04-01T11:46:12;10.00;99.90
52275;DHT22;38228;50.940;4.024;2023-04-01T11:53:36;10.20;99.90
52275;DHT22;38228;50.940;4.024;2023-04-01T11:58:57;10.30;99.90
52275;DHT22;38228;50.940;4.024;2023-04-01T12:01:33;10.30;99.90
52275;DHT22;38228;50.940;4.024;2023-04-01T12:06:43;10.20;99.90
52275;DHT22;38228;50.940;4.024;2023-04-01T12:19:58;10.00;99.90
52275;DHT22;38228;50.940;4.024;2023-04-01T12:25:00;9.90;99.90
52275;DHT22;38228;50.940;4.024;2023-04-01T12:38:16;9.90;99.90
52275;DHT22;38228;50.940;4.024;2023-04-01T12:46:14;9.90;99.90
52275;DHT22;38228;50.940;4.024;2023-04-01T12:58:55;9.90;99.90
52275;DHT22;38228;50.940;4.024;2023-04-01T13:04:19;9.80;99.90
52275;DHT22;38228;50.940;4.024;2023-04-01T13:06:53;9.70;99.90
52275;DHT22;38228;50.940;4.024;2023-04-01T13:09:35;9.70;99.90
52275;DHT22;38228;50.940;4.024;2023-04-01T13:12:07;9.50;99.90
52275;DHT22;38228;50.940;4.024;2023-04-01T13:28:03;9.70;99.90
52275;DHT22;38228;50.940;4.024;2023-04-01T13:31:05;9.70;99.90
52275;DHT22;38228;50.940;4.024;2023-04-01T13:38:40;9.80;99.90
52275;DHT22;38228;50.940;4.024;2023-04-01T13:43:37;9.90;99.90
52275;DHT22;38228;50.940;4.024;2023-04-01T13:56:24;9.70;99.90
52275;DHT22;38228;50.940;4.024;2023-04-01T13:59:02;9.60;99.90
52275;DHT22;38228;50.940;4.024;2023-04-01T14:01:41;9.50;99.90
52275;DHT22;38228;50.940;4.024;2023-04-01T14:04:14;9.40;99.90
52275;DHT22;38228;50.940;4.024;2023-04-01T14:27:16;9.60;99.90
52275;DHT22;38228;50.940;4.024;2023-04-01T14:29:55;9.60;99.90
52275;DHT22;38228;50.940;4.024;2023-04-01T14:50:25;9.70;99.90
52275;DHT22;38228;50.940;4.024;2023-04-01T14:52:59;9.60;99.90
52275;DHT22;38228;50.940;4.024;2023-04-01T14:58:11;9.70;99.90
52275;DHT22;38228;50.940;4.024;2023-04-01T15:00:41;9.80;99.90
52275;DHT22;38228;50.940;4.024;2023-04-01T15:03:09;9.80;99.90
52275;DHT22;38228;50.940;4.024;2023-04-01T15:05:42;9.70;99.90
52275;DHT22;38228;50.940;4.024;2023-04-01T15:08:20;9.60;99.90
52275;DHT22;38228;50.940;4.024;2023-04-01T15:18:53;9.80;99.90
52275;DHT22;38228;50.940;4.024;2023-04-01T15:24:06;9.70;99.90
52275;DHT22;38228;50.940;4.024;2023-04-01T15:26:39;9.60;99.90
52275;DHT22;38228;50.940;4.024;2023-04-01T15:31:55;9.60;99.90
52275;DHT22;38228;50.940;4.024;2023-04-01T15:34:30;9.60;99.90
52275;DHT22;38228;50.940;4.024;2023-04-01T15:37:15;9.50;99.90
52275;DHT22;38228;50.940;4.024;2023-04-01T15:42:19;9.50;99.90
52275;DHT22;38228;50.940;4.024;2023-04-01T15:52:49;9.60;99.90
52275;DHT22;38228;50.940;4.024;2023-04-01T16:00:43;9.50;99.90
52275;DHT22;38228;50.940;4.024;2023-04-01T16:08:40;9.40;99.90
52275;DHT22;38228;50.940;4.024;2023-04-01T16:13:46;9.30;99.90
52275;DHT22;38228;50.940;4.024;2023-04-01T16:23:55;9.30;99.90
52275;DHT22;38228;50.940;4.024;2023-04-01T16:29:25;9.40;99.90
52275;DHT22;38228;50.940;4.024;2023-04-01T16:31:47;9.40;99.90
52275;DHT22;38228;50.940;4.024;2023-04-01T16:34:16;9.40;99.90
52275;DHT22;38228;50.940;4.024;2023-04-01T16:36:50;9.40;99.90
52275;DHT22;38228;50.940;4.024;2023-04-01T16:41:49;9.40;99.90
52275;DHT22;38228;50.940;4.024;2023-04-01T16:44:18;9.40;99.90
52275;DHT22;38228;50.940;4.024;2023-04-01T16:46:46;9.50;99.90
52275;DHT22;38228;50.940;4.024;2023-04-01T16:51:41;9.60;99.90
52275;DHT22;38228;50.940;4.024;2023-04-01T16:56:55;9.50;99.90
52275;DHT22;38228;50.940;4.024;2023-04-01T16:59:29;9.40;99.90
52275;DHT22;38228;50.940;4.024;2023-04-01T17:04:37;9.30;99.90
52275;DHT22;38228;50.940;4.024;2023-04-01T17:12:19;9.30;99.90
52275;DHT22;38228;50.940;4.024;2023-04-01T17:22:26;9.30;99.90
52275;DHT22;38228;50.940;4.024;2023-04-01T17:25:14;9.30;99.90
52275;DHT22;38228;50.940;4.024;2023-04-01T17:27:50;9.20;99.90
52275;DHT22;38228;50.940;4.024;2023-04-01T17:33:27;9.30;99.90
52275;DHT22;38228;50.940;4.024;2023-04-01T17:35:56;9.30;99.90
52275;DHT22;38228;50.940;4.024;2023-04-01T17:41:15;9.20;99.90
52275;DHT22;38228;50.940;4.024;2023-04-01T17:51:43;9.00;99.90
52275;DHT22;38228;50.940;4.024;2023-04-01T17:54:22;9.00;99.90
52275;DHT22;38228;50.940;4.024;2023-04-01T17:59:38;8.90;99.90
52275;DHT22;38228;50.940;4.024;2023-04-01T18:10:05;8.80;99.90
52275;DHT22;38228;50.940;4.024;2023-04-01T18:18:19;8.90;99.90
52275;DHT22;38228;50.940;4.024;2023-04-01T18:23:23;8.80;99.90
52275;DHT22;38228;50.940;4.024;2023-04-01T18:25:53;8.90;99.90
52275;DHT22;38228;50.940;4.024;2023-04-01T18:33:36;8.80;99.90
52275;DHT22;38228;50.940;4.024;2023-04-01T18:36:13;8.80;99.90
52275;DHT22;38228;50.940;4.024;2023-04-01T18:38:45;8.90;99.90
52275;DHT22;38228;50.940;4.024;2023-04-01T18:41:13;8.90;99.90
52275;DHT22;38228;50.940;4.024;2023-04-01T18:43:54;8.80;99.90
52275;DHT22;38228;50.940;4.024;2023-04-01T18:46:33;8.90;99.90
52275;DHT22;38228;50.940;4.024;2023-04-01T18:54:05;8.80;99.90
52275;DHT22;38228;50.940;4.024;2023-04-01T18:56:36;8.80;99.90
52275;DHT22;38228;50.940;4.024;2023-04-01T18:59:10;8.70;99.90
52275;DHT22;38228;50.940;4.024;2023-04-01T19:01:39;8.60;99.90
52275;DHT22;38228;50.940;4.024;2023-04-01T19:04:15;8.60;99.90
52275;DHT22;38228;50.940;4.024;2023-04-01T19:06:47;8.60;99.90
52275;DHT22;38228;50.940;4.024;2023-04-01T19:19:34;8.70;99.90
52275;DHT22;38228;50.940;4.024;2023-04-01T19:30:02;8.70;99.90
52275;DHT22;38228;50.940;4.024;2023-04-01T19:32:40;8.80;99.90
52275;DHT22;38228;50.940;4.024;2023-04-01T19:37:56;8.70;99.90
52275;DHT22;38228;50.940;4.024;2023-04-01T19:40:30;8.80;99.90
52275;DHT22;38228;50.940;4.024;2023-04-01T19:48:26;8.70;99.90
52275;DHT22;38228;50.940;4.024;2023-04-01T19:54:01;8.70;99.90
52275;DHT22;38228;50.940;4.024;2023-04-01T19:56:52;8.70;99.90
52275;DHT22;38228;50.940;4.024;2023-04-01T19:59:19;8.70;99.90
52275;DHT22;38228;50.940;4.024;2023-04-01T20:04:17;8.70;99.90
52275;DHT22;38228;50.940;4.024;2023-04-01T20:06:51;8.70;99.90
52275;DHT22;38228;50.940;4.024;2023-04-01T20:12:08;8.60;99.90
52275;DHT22;38228;50.940;4.024;2023-04-01T20:14:40;8.60;99.90
52275;DHT22;38228;50.940;4.024;2023-04-01T20:17:17;8.60;99.90
52275;DHT22;38228;50.940;4.024;2023-04-01T20:19:45;8.70;99.90
52275;DHT22;38228;50.940;4.024;2023-04-01T20:24:44;8.60;99.90
52275;DHT22;38228;50.940;4.024;2023-04-01T20:32:34;8.70;99.90
52275;DHT22;38228;50.940;4.024;2023-04-01T20:38:22;8.70;99.90
52275;DHT22;38228;50.940;4.024;2023-04-01T20:45:55;8.80;99.90
52275;DHT22;38228;50.940;4.024;2023-04-01T20:51:03;8.90;99.90
52275;DHT22;38228;50.940;4.024;2023-04-01T20:53:43;8.90;99.90
52275;DHT22;38228;50.940;4.024;2023-04-01T20:58:47;8.90;99.90
52275;DHT22;38228;50.940;4.024;2023-04-01T21:03:49;8.80;99.90
52275;DHT22;38228;50.940;4.024;2023-04-01T21:11:46;8.90;99.90
52275;DHT22;38228;50.940;4.024;2023-04-01T21:14:34;8.90;99.90
52275;DHT22;38228;50.940;4.024;2023-04-01T21:19:58;8.70;99.90
52275;DHT22;38228;50.940;4.024;2023-04-01T21:22:33;8.80;99.90
52275;DHT22;38228;50.940;4.024;2023-04-01T21:25:03;8.80;99.90
52275;DHT22;38228;50.940;4.024;2023-04-01T21:44:04;8.80;99.90
52275;DHT22;38228;50.940;4.024;2023-04-01T22:05:44;8.70;99.90
52275;DHT22;38228;50.940;4.024;2023-04-01T22:13:32;8.90;99.90
52275;DHT22;38228;50.940;4.024;2023-04-01T22:17:01;9.00;99.90
52275;DHT22;38228;50.940;4.024;2023-04-01T22:19:05;8.90;99.90
52275;DHT22;38228;50.940;4.024;2023-04-01T22:26:43;8.90;99.90
52275;DHT22;38228;50.940;4.024;2023-04-01T22:29:17;8.90;99.90
52275;DHT22;38228;50.940;4.024;2023-04-01T22:31:49;8.90;99.90
52275;DHT22;38228;50.940;4.024;2023-04-01T22:36:50;8.90;99.90
52275;DHT22;38228;50.940;4.024;2023-04-01T22:42:46;8.80;99.90
52275;DHT22;38228;50.940;4.024;2023-04-01T22:54:50;9.00;99.90
52275;DHT22;38228;50.940;4.024;2023-04-01T22:57:28;8.90;99.90
52275;DHT22;38228;50.940;4.024;2023-04-01T22:59:58;8.90;99.90
52275;DHT22;38228;50.940;4.024;2023-04-01T23:02:33;9.00;99.90
52275;DHT22;38228;50.940;4.024;2023-04-01T23:05:00;8.90;99.90
52275;DHT22;38228;50.940;4.024;2023-04-01T23:07:34;8.90;99.90
52275;DHT22;38228;50.940;4.024;2023-04-01T23:10:03;8.90;99.90
52275;DHT22;38228;50.940;4.024;2023-04-01T23:12:31;8.90;99.90
52275;DHT22;38228;50.940;4.024;2023-04-01T23:14:59;8.90;99.90
52275;DHT22;38228;50.940;4.024;2023-04-01T23:31:07;9.00;99.90
52275;DHT22;38228;50.940;4.024;2023-04-01T23:38:21;8.90;99.90
52275;DHT22;38228;50.940;4.024;2023-04-01T23:40:48;8.70;99.90
52275;DHT22;38228;50.940;4.024;2023-04-01T23:43:22;8.80;99.90
52275;DHT22;38228;50.940;4.024;2023-04-01T23:45:48;8.80;99.90
52275;DHT22;38228;50.940;4.024;2023-04-01T23:48:15;8.90;99.90
52275;DHT22;38228;50.940;4.024;2023-04-01T23:50:41;9.00;99.90
52275;DHT22;38228;50.940;4.024;2023-04-01T23:53:17;9.00;99.90
52275;DHT22;38228;50.940;4.024;2023-04-01T23:55:44;9.10;99.90
